ADDS TAF Data INFO
IDs: Format: Raw Decoded Include METARs

Data at: 2138 UTC 24 Feb 2018

KELP 242051Z 28009KT 10SM FEW250 12/M14 A3004 RMK AO2 WSHFT 1958 SLP135 T01221144 56019

KELP 241720Z 2418/2518 30015G22KT P6SM SKC
  FM242200 27010KT P6SM SKC